createdAt,value
2023-04-05T00:00:42.790Z,8.30
2023-04-05T00:02:03.647Z,8.30
2023-04-05T00:03:24.749Z,8.30
2023-04-05T00:04:45.974Z,8.20
2023-04-05T00:06:07.402Z,8.20
2023-04-05T00:07:27.638Z,8.10
2023-04-05T00:08:48.170Z,8.10
2023-04-05T00:10:09.531Z,8.10
2023-04-05T00:11:31.365Z,8.10
2023-04-05T00:12:53.475Z,8.10
2023-04-05T00:14:14.303Z,8.20
2023-04-05T00:15:34.935Z,8.20
2023-04-05T00:16:55.567Z,8.10
2023-04-05T00:18:16.314Z,8.10
2023-04-05T00:19:36.929Z,8.10
2023-04-05T00:20:57.565Z,8.10
2023-04-05T00:22:18.067Z,8.10
2023-04-05T00:23:38.868Z,8.00
2023-04-05T00:24:59.265Z,8.00
2023-04-05T00:26:20.683Z,8.00
2023-04-05T00:27:43.735Z,8.10
2023-04-05T00:29:06.116Z,8.00
2023-04-05T00:30:26.747Z,8.00
2023-04-05T00:31:47.274Z,8.00
2023-04-05T00:33:08.027Z,8.00
2023-04-05T00:34:28.493Z,8.00
2023-04-05T00:35:56.371Z,8.00
2023-04-05T00:37:17.249Z,8.00
2023-04-05T00:38:38.455Z,7.90
2023-04-05T00:39:59.064Z,7.90
2023-04-05T00:41:19.849Z,7.80
2023-04-05T00:42:40.147Z,7.80
2023-04-05T00:44:00.683Z,7.70
2023-04-05T00:45:25.710Z,7.60
2023-04-05T00:46:49.265Z,7.60
2023-04-05T00:48:09.923Z,7.60
2023-04-05T00:49:30.749Z,7.50
2023-04-05T00:50:52.239Z,7.20
2023-04-05T00:52:12.695Z,7.40
2023-04-05T00:53:36.297Z,7.40
2023-04-05T00:54:57.068Z,7.30
2023-04-05T00:56:17.972Z,7.40
2023-04-05T00:57:38.995Z,7.40
2023-04-05T00:59:00.606Z,7.40
2023-04-05T01:00:22.847Z,7.50
2023-04-05T01:01:43.536Z,7.50
2023-04-05T01:03:05.437Z,7.50
2023-04-05T01:04:27.206Z,7.50
2023-04-05T01:05:47.885Z,7.50
2023-04-05T01:07:13.873Z,7.60
2023-04-05T01:08:55.530Z,7.60
2023-04-05T01:10:17.366Z,7.60
2023-04-05T01:11:39.767Z,7.60
2023-04-05T01:13:02.932Z,7.60
2023-04-05T01:14:23.473Z,7.60
2023-04-05T01:15:45.284Z,7.60
2023-04-05T01:17:05.912Z,7.60
2023-04-05T01:18:27.815Z,7.60
2023-04-05T01:19:49.024Z,7.60
2023-04-05T01:21:24.791Z,7.60
2023-04-05T01:23:13.368Z,7.60
2023-04-05T01:24:39.686Z,7.60
2023-04-05T01:26:51.986Z,7.60
2023-04-05T01:28:35.211Z,7.60
2023-04-05T01:30:03.358Z,7.50
2023-04-05T01:31:29.658Z,7.50
2023-04-05T01:32:56.239Z,7.50
2023-04-05T01:34:23.085Z,7.40
2023-04-05T01:35:51.206Z,7.50
2023-04-05T01:37:13.290Z,7.40
2023-04-05T01:38:37.345Z,7.40
2023-04-05T01:39:58.013Z,7.30
2023-04-05T01:41:18.797Z,7.20
2023-04-05T01:42:46.088Z,7.20
2023-04-05T01:44:06.607Z,7.10
2023-04-05T01:45:28.327Z,7.10
2023-04-05T01:46:48.992Z,6.90
2023-04-05T01:48:09.688Z,6.70
2023-04-05T01:49:32.977Z,6.70
2023-04-05T01:50:53.506Z,6.80
2023-04-05T01:52:14.249Z,6.80
2023-04-05T01:53:34.535Z,6.80
2023-04-05T01:54:57.852Z,6.80
2023-04-05T01:56:18.614Z,6.90
2023-04-05T01:57:39.324Z,6.90
2023-04-05T01:59:02.581Z,6.90
2023-04-05T02:00:23.171Z,6.90
2023-04-05T02:01:45.301Z,7.00
2023-04-05T02:03:05.766Z,7.00
2023-04-05T02:04:26.216Z,7.00
2023-04-05T02:05:46.673Z,7.00
2023-04-05T02:07:07.622Z,7.00
2023-04-05T02:08:28.371Z,7.00
2023-04-05T02:09:49.051Z,7.00
2023-04-05T02:11:09.436Z,7.00
2023-04-05T02:12:29.690Z,7.00
2023-04-05T02:13:50.224Z,7.00
2023-04-05T02:15:11.244Z,7.00
2023-04-05T02:16:31.657Z,7.00
2023-04-05T02:17:53.718Z,7.00
2023-04-05T02:19:14.358Z,6.90
2023-04-05T02:20:34.789Z,6.90
2023-04-05T02:21:55.390Z,6.90
2023-04-05T02:23:15.878Z,6.90
2023-04-05T02:24:36.474Z,6.90
2023-04-05T02:25:57.181Z,6.80
2023-04-05T02:27:17.743Z,6.80
2023-04-05T02:28:40.964Z,6.80
2023-04-05T02:30:01.627Z,6.70
2023-04-05T02:31:22.225Z,6.80
2023-04-05T02:32:43.077Z,6.70
2023-04-05T02:34:04.991Z,6.70
2023-04-05T02:35:25.607Z,6.80
2023-04-05T02:36:46.533Z,6.80
2023-04-05T02:38:07.379Z,6.70
2023-04-05T02:39:29.120Z,6.70
2023-04-05T02:40:54.854Z,6.70
2023-04-05T02:42:15.316Z,6.70
2023-04-05T02:43:41.376Z,6.70
2023-04-05T02:45:01.900Z,6.70
2023-04-05T02:46:22.462Z,6.70
2023-04-05T02:47:42.990Z,6.70
2023-04-05T02:49:05.532Z,6.70
2023-04-05T02:50:26.218Z,6.70
2023-04-05T02:51:46.859Z,6.70
2023-04-05T02:53:07.535Z,6.70
2023-04-05T02:54:28.098Z,6.70
2023-04-05T02:55:52.391Z,6.70
2023-04-05T02:57:15.263Z,6.60
2023-04-05T02:58:35.584Z,6.60
2023-04-05T02:59:55.873Z,6.60
2023-04-05T03:01:18.372Z,6.60
2023-04-05T03:02:39.030Z,6.60
2023-04-05T03:03:59.876Z,6.60
2023-04-05T03:05:22.075Z,6.60
2023-04-05T03:06:43.105Z,6.60
2023-04-05T03:08:04.090Z,6.60
2023-04-05T03:09:27.066Z,6.60
2023-04-05T03:10:55.108Z,6.60
2023-04-05T03:12:15.770Z,6.60
2023-04-05T03:13:36.671Z,6.60
2023-04-05T03:14:57.180Z,6.50
2023-04-05T03:16:17.936Z,6.40
2023-04-05T03:17:38.496Z,6.40
2023-04-05T03:18:59.270Z,6.30
2023-04-05T03:20:21.192Z,6.40
2023-04-05T03:21:41.782Z,6.40
2023-04-05T03:23:02.207Z,6.40
2023-04-05T03:24:22.962Z,6.30
2023-04-05T03:25:43.477Z,6.30
2023-04-05T03:27:04.349Z,6.30
2023-04-05T03:28:25.642Z,6.20
2023-04-05T03:29:46.333Z,6.10
2023-04-05T03:31:07.039Z,5.90
2023-04-05T03:32:27.538Z,5.80
2023-04-05T03:33:48.147Z,5.90
2023-04-05T03:35:09.410Z,6.00
2023-04-05T03:36:31.314Z,6.10
2023-04-05T03:37:51.632Z,6.10
2023-04-05T03:39:15.419Z,6.10
2023-04-05T03:40:35.923Z,6.10
2023-04-05T03:41:56.597Z,6.10
2023-04-05T03:43:16.928Z,6.10
2023-04-05T03:44:37.509Z,6.10
2023-04-05T03:45:57.752Z,6.10
2023-04-05T03:47:18.389Z,6.10
2023-04-05T03:48:39.021Z,6.10
2023-04-05T03:49:59.729Z,6.10
2023-04-05T03:51:20.399Z,6.10
2023-04-05T03:52:42.080Z,6.10
2023-04-05T03:54:02.516Z,6.00
2023-04-05T03:55:23.201Z,6.00
2023-04-05T03:56:43.999Z,6.00
2023-04-05T03:58:05.005Z,6.00
2023-04-05T03:59:25.498Z,5.90
2023-04-05T04:00:46.375Z,5.90
2023-04-05T04:02:06.820Z,5.90
2023-04-05T04:03:27.727Z,5.90
2023-04-05T04:04:50.624Z,5.90
2023-04-05T04:06:11.429Z,5.90
2023-04-05T04:07:31.703Z,5.90
2023-04-05T04:08:53.628Z,5.90
2023-04-05T04:10:15.649Z,5.90
2023-04-05T04:11:36.148Z,5.90
2023-04-05T04:12:56.724Z,5.80
2023-04-05T04:14:17.200Z,5.90
2023-04-05T04:15:37.743Z,5.90
2023-04-05T04:17:01.689Z,5.90
2023-04-05T04:18:22.343Z,5.90
2023-04-05T04:19:43.171Z,5.90
2023-04-05T04:21:04.131Z,5.80
2023-04-05T04:22:25.411Z,5.80
2023-04-05T04:23:45.594Z,5.80
2023-04-05T04:25:09.196Z,5.80
2023-04-05T04:26:30.192Z,5.70
2023-04-05T04:27:50.916Z,5.70
2023-04-05T04:29:11.804Z,5.70
2023-04-05T04:30:32.234Z,5.70
2023-04-05T04:31:53.190Z,5.70
2023-04-05T04:33:13.811Z,5.70
2023-04-05T04:34:34.496Z,5.70
2023-04-05T04:35:55.497Z,5.70
2023-04-05T04:37:16.246Z,5.70
2023-04-05T04:38:38.511Z,5.70
2023-04-05T04:39:59.083Z,5.80
2023-04-05T04:41:21.011Z,5.70
2023-04-05T04:42:41.559Z,5.80
2023-04-05T04:44:02.125Z,5.70
2023-04-05T04:45:22.898Z,5.70
2023-04-05T04:46:43.667Z,5.70
2023-04-05T04:48:04.915Z,5.70
2023-04-05T04:49:25.533Z,5.60
2023-04-05T04:50:46.743Z,5.60
2023-04-05T04:52:07.243Z,5.60
2023-04-05T04:53:28.002Z,5.70
2023-04-05T04:54:50.024Z,5.70
2023-04-05T04:56:10.983Z,5.70
2023-04-05T04:57:32.602Z,5.70
2023-04-05T04:58:54.939Z,5.70
2023-04-05T05:00:15.735Z,5.70
2023-04-05T05:01:36.651Z,5.70
2023-04-05T05:02:57.244Z,5.70
2023-04-05T05:04:18.080Z,5.70
2023-04-05T05:05:42.705Z,5.70
2023-04-05T05:07:03.582Z,5.70
2023-04-05T05:08:23.964Z,5.70
2023-04-05T05:09:44.719Z,5.70
2023-04-05T05:11:07.525Z,5.70
2023-04-05T05:12:28.152Z,5.70
2023-04-05T05:13:53.162Z,5.60
2023-04-05T05:15:14.418Z,5.60
2023-04-05T05:16:35.215Z,5.60
2023-04-05T05:17:55.556Z,5.60
2023-04-05T05:19:15.731Z,5.60
2023-04-05T05:20:36.703Z,5.60
2023-04-05T05:21:57.418Z,5.60
2023-04-05T05:23:18.137Z,5.60
2023-04-05T05:24:38.755Z,5.60
2023-04-05T05:25:59.535Z,5.60
2023-04-05T05:27:22.306Z,5.60
2023-04-05T05:28:42.999Z,5.60
2023-04-05T05:30:05.687Z,5.60
2023-04-05T05:31:26.251Z,5.60
2023-04-05T05:32:47.196Z,5.70
2023-04-05T05:34:07.939Z,5.70
2023-04-05T05:35:28.447Z,5.70
2023-04-05T05:36:48.969Z,5.70
2023-04-05T05:38:11.323Z,5.70
2023-04-05T05:39:33.504Z,5.70
2023-04-05T05:40:57.346Z,5.70
2023-04-05T05:42:17.727Z,5.70
2023-04-05T05:43:38.072Z,5.80
2023-04-05T05:45:02.200Z,5.80
2023-04-05T05:46:24.612Z,5.80
2023-04-05T05:47:45.591Z,5.80
2023-04-05T05:49:05.970Z,5.80
2023-04-05T05:50:26.453Z,5.80
2023-04-05T05:51:47.082Z,5.90
2023-04-05T05:53:08.009Z,5.90
2023-04-05T05:54:28.823Z,5.90
2023-04-05T05:55:49.555Z,6.00
2023-04-05T05:57:09.876Z,6.00
2023-04-05T05:58:30.389Z,6.00
2023-04-05T05:59:50.830Z,6.00
2023-04-05T06:01:11.565Z,6.00
2023-04-05T06:02:33.667Z,5.90
2023-04-05T06:03:54.751Z,5.90
2023-04-05T06:05:15.462Z,6.00
2023-04-05T06:06:37.686Z,6.10
2023-04-05T06:07:58.512Z,6.10
2023-04-05T06:09:19.191Z,6.20
2023-04-05T06:10:39.859Z,6.20
2023-04-05T06:12:00.619Z,6.20
2023-04-05T06:13:21.266Z,6.20
2023-04-05T06:14:41.907Z,6.20
2023-04-05T06:16:02.620Z,6.30
2023-04-05T06:17:23.920Z,6.30
2023-04-05T06:18:45.707Z,6.30
2023-04-05T06:20:07.723Z,6.40
2023-04-05T06:21:28.056Z,6.50
2023-04-05T06:22:48.828Z,6.50
2023-04-05T06:24:09.653Z,6.50
2023-04-05T06:25:30.282Z,6.60
2023-04-05T06:26:51.323Z,6.60
2023-04-05T06:28:11.679Z,6.60
2023-04-05T06:29:32.385Z,6.70
2023-04-05T06:30:53.884Z,6.70
2023-04-05T06:32:14.625Z,6.70
2023-04-05T06:33:35.150Z,6.80
2023-04-05T06:34:56.821Z,6.80
2023-04-05T06:36:16.914Z,6.80
2023-04-05T06:37:37.185Z,6.80
2023-04-05T06:38:57.598Z,6.90
2023-04-05T06:40:18.677Z,6.90
2023-04-05T06:41:39.129Z,6.90
2023-04-05T06:42:59.826Z,7.00
2023-04-05T06:44:20.435Z,7.00
2023-04-05T06:45:40.851Z,7.10
2023-04-05T06:47:01.162Z,7.10
2023-04-05T06:48:21.598Z,7.10
2023-04-05T06:49:42.096Z,7.10
2023-04-05T06:51:04.639Z,7.20
2023-04-05T06:52:25.253Z,7.20
2023-04-05T06:53:45.730Z,7.20
2023-04-05T06:55:07.570Z,7.20
2023-04-05T06:56:28.265Z,7.20
2023-04-05T06:57:49.062Z,7.10
2023-04-05T06:59:09.738Z,6.90
2023-04-05T07:00:30.555Z,7.00
2023-04-05T07:01:51.178Z,7.00
2023-04-05T07:03:11.523Z,7.10
2023-04-05T07:04:32.111Z,7.10
2023-04-05T07:05:53.347Z,7.10
2023-04-05T07:07:15.234Z,7.10
2023-04-05T07:08:35.837Z,7.20
2023-04-05T07:09:56.406Z,7.30
2023-04-05T07:11:16.996Z,7.20
2023-04-05T07:12:37.748Z,7.10
2023-04-05T07:13:58.500Z,7.10
2023-04-05T07:15:19.183Z,7.20
2023-04-05T07:16:39.637Z,7.30
2023-04-05T07:18:00.590Z,7.40
2023-04-05T07:19:20.929Z,7.40
2023-04-05T07:20:41.365Z,7.50
2023-04-05T07:22:01.881Z,7.50
2023-04-05T07:23:24.003Z,7.50
2023-04-05T07:24:45.226Z,7.50
2023-04-05T07:26:06.096Z,7.40
2023-04-05T07:27:26.524Z,7.50
2023-04-05T07:28:47.087Z,7.50
2023-04-05T07:30:08.665Z,7.50
2023-04-05T07:31:29.465Z,7.40
2023-04-05T07:32:50.066Z,7.50
2023-04-05T07:34:10.701Z,7.60
2023-04-05T07:35:31.450Z,7.60
2023-04-05T07:36:52.151Z,7.60
2023-04-05T07:38:12.739Z,7.60
2023-04-05T07:39:34.739Z,7.80
2023-04-05T07:40:55.713Z,7.90
2023-04-05T07:42:16.107Z,7.90
2023-04-05T07:43:36.568Z,7.90
2023-04-05T07:44:57.162Z,8.00
2023-04-05T07:46:17.900Z,8.00
2023-04-05T07:47:38.587Z,8.10
2023-04-05T07:48:59.069Z,8.20
2023-04-05T07:50:19.620Z,8.30
2023-04-05T07:51:40.204Z,8.30
2023-04-05T07:53:01.188Z,8.40
2023-04-05T07:54:21.398Z,8.50
2023-04-05T07:55:43.230Z,8.40
2023-04-05T07:57:03.999Z,8.50
2023-04-05T07:58:25.208Z,8.50
2023-04-05T07:59:45.749Z,8.60
2023-04-05T08:01:06.376Z,8.50
2023-04-05T08:02:27.071Z,8.50
2023-04-05T08:03:47.709Z,8.50
2023-04-05T08:05:08.845Z,8.50
2023-04-05T08:06:29.278Z,8.50
2023-04-05T08:07:49.933Z,8.50
2023-04-05T08:09:10.956Z,8.60
2023-04-05T08:10:31.803Z,8.70
2023-04-05T08:11:53.523Z,8.80
2023-04-05T08:13:13.889Z,8.80
2023-04-05T08:14:34.572Z,8.90
2023-04-05T08:15:56.125Z,8.90
2023-04-05T08:17:16.471Z,9.10
2023-04-05T08:18:36.780Z,9.10
2023-04-05T08:19:57.288Z,9.10
2023-04-05T08:21:18.060Z,9.10
2023-04-05T08:22:38.700Z,9.10
2023-04-05T08:23:59.353Z,9.30
2023-04-05T08:25:20.053Z,9.40
2023-04-05T08:26:40.536Z,9.50
2023-04-05T08:28:02.236Z,9.50
2023-04-05T08:29:22.985Z,9.50
2023-04-05T08:30:43.883Z,9.60
2023-04-05T08:32:04.742Z,9.60
2023-04-05T08:33:25.681Z,9.60
2023-04-05T08:34:46.104Z,9.70
2023-04-05T08:36:07.431Z,9.70
2023-04-05T08:37:27.998Z,9.80
2023-04-05T08:38:48.823Z,9.80
2023-04-05T08:40:10.097Z,9.80
2023-04-05T08:41:34.138Z,9.70
2023-04-05T08:42:58.050Z,9.70
2023-04-05T08:44:22.554Z,9.80
2023-04-05T08:45:47.813Z,9.90
2023-04-05T08:47:09.007Z,9.90
2023-04-05T08:48:31.975Z,9.90
2023-04-05T08:49:52.759Z,9.90
2023-04-05T08:51:13.496Z,10.00
2023-04-05T08:52:34.354Z,10.00
2023-04-05T08:54:00.037Z,10.00
2023-04-05T08:55:20.855Z,10.00
2023-04-05T08:56:42.623Z,10.00
2023-04-05T08:58:07.851Z,10.10
2023-04-05T08:59:30.076Z,10.10
2023-04-05T09:00:51.324Z,10.20
2023-04-05T09:02:14.365Z,10.30
2023-04-05T09:03:36.616Z,10.30
2023-04-05T09:04:57.242Z,10.40
2023-04-05T09:06:18.096Z,10.40
2023-04-05T09:07:38.782Z,10.40
2023-04-05T09:08:59.431Z,10.40
2023-04-05T09:10:21.191Z,10.50
2023-04-05T09:11:43.303Z,10.60
2023-04-05T09:13:03.672Z,10.70
2023-04-05T09:14:24.263Z,10.70
2023-04-05T09:15:46.312Z,10.60
2023-04-05T09:17:06.996Z,10.70
2023-04-05T09:18:27.646Z,10.70
2023-04-05T09:19:48.214Z,10.80
2023-04-05T09:21:08.771Z,11.00
2023-04-05T09:22:29.419Z,10.90
2023-04-05T09:23:52.624Z,10.80
2023-04-05T09:25:13.460Z,10.80
2023-04-05T09:26:34.132Z,10.80
2023-04-05T09:27:55.238Z,10.80
2023-04-05T09:29:29.071Z,10.90
2023-04-05T09:30:50.932Z,10.90
2023-04-05T09:32:12.421Z,10.90
2023-04-05T09:33:32.810Z,10.90
2023-04-05T09:34:54.081Z,10.90
2023-04-05T09:36:14.800Z,10.90
2023-04-05T09:37:35.228Z,10.90
2023-04-05T09:39:05.800Z,10.80
2023-04-05T09:40:41.371Z,10.80
2023-04-05T09:42:06.146Z,10.80
2023-04-05T09:43:39.110Z,10.90
2023-04-05T09:45:00.658Z,11.00
2023-04-05T09:46:32.684Z,11.00
2023-04-05T09:47:57.664Z,11.10
2023-04-05T09:49:32.305Z,11.20
2023-04-05T09:51:12.480Z,11.20
2023-04-05T09:52:33.859Z,11.30
2023-04-05T09:53:58.139Z,11.30
2023-04-05T09:55:26.686Z,11.30
2023-04-05T09:56:54.735Z,11.20
2023-04-05T09:58:19.572Z,11.30
2023-04-05T09:59:40.066Z,11.30
2023-04-05T10:01:13.838Z,11.40
2023-04-05T10:02:39.516Z,11.40
2023-04-05T10:04:00.736Z,11.50
2023-04-05T10:05:24.627Z,11.40
2023-04-05T10:06:45.262Z,11.40
2023-04-05T10:08:06.018Z,11.40
2023-04-05T10:09:26.558Z,11.50
2023-04-05T10:10:47.886Z,11.60
2023-04-05T10:12:09.732Z,11.70
2023-04-05T10:13:30.140Z,11.80
2023-04-05T10:14:50.714Z,11.80
2023-04-05T10:16:13.780Z,11.70
2023-04-05T10:17:39.273Z,11.70
2023-04-05T10:18:59.791Z,11.90
2023-04-05T10:20:21.713Z,11.80
2023-04-05T10:21:43.530Z,11.90
2023-04-05T10:23:07.824Z,12.00
2023-04-05T10:24:34.450Z,12.10
2023-04-05T10:26:04.262Z,12.10
2023-04-05T10:27:30.708Z,12.00
2023-04-05T10:28:55.531Z,11.90
2023-04-05T10:30:16.708Z,11.90
2023-04-05T10:31:44.720Z,12.00
2023-04-05T10:33:13.841Z,12.10
2023-04-05T10:34:42.108Z,12.00
2023-04-05T10:36:07.205Z,12.10
2023-04-05T10:37:46.378Z,12.00
2023-04-05T10:39:12.691Z,11.90
2023-04-05T10:40:33.414Z,12.00
2023-04-05T10:41:55.651Z,12.00
2023-04-05T10:43:21.549Z,12.10
2023-04-05T10:44:43.862Z,12.00
2023-04-05T10:46:04.662Z,12.00
2023-04-05T10:47:26.199Z,12.00
2023-04-05T10:48:52.731Z,12.00
2023-04-05T10:50:17.764Z,12.00
2023-04-05T10:51:39.070Z,12.00
2023-04-05T10:52:59.929Z,12.10
2023-04-05T10:54:21.238Z,12.00
2023-04-05T10:55:42.280Z,12.00
2023-04-05T10:57:07.559Z,12.10
2023-04-05T10:58:29.490Z,12.10
2023-04-05T10:59:50.567Z,12.10
2023-04-05T11:01:12.872Z,12.10
2023-04-05T11:02:34.020Z,12.10
2023-04-05T11:03:56.190Z,12.20
2023-04-05T11:05:30.297Z,12.30
2023-04-05T11:07:11.426Z,12.40
2023-04-05T11:08:32.579Z,12.60
2023-04-05T11:09:56.490Z,12.40
2023-04-05T11:11:17.983Z,12.40
2023-04-05T11:12:53.152Z,12.50
2023-04-05T11:14:21.571Z,12.40
2023-04-05T11:15:41.903Z,12.50
2023-04-05T11:17:02.900Z,12.50
2023-04-05T11:18:23.425Z,12.50
2023-04-05T11:19:51.409Z,12.40
2023-04-05T11:21:12.038Z,12.50
2023-04-05T11:22:32.489Z,12.60
2023-04-05T11:24:04.090Z,12.60
2023-04-05T11:25:25.142Z,12.70
2023-04-05T11:26:55.535Z,12.80
2023-04-05T11:28:30.155Z,12.90
2023-04-05T11:29:50.722Z,13.00
2023-04-05T11:31:15.668Z,13.00
2023-04-05T11:32:40.321Z,13.20
2023-04-05T11:34:03.836Z,13.30
2023-04-05T11:35:25.713Z,13.40
2023-04-05T11:36:48.568Z,13.40
2023-04-05T11:38:09.257Z,13.50
2023-04-05T11:39:30.145Z,13.60
2023-04-05T11:40:51.214Z,13.70
2023-04-05T11:42:12.075Z,14.00
2023-04-05T11:43:33.474Z,14.00
2023-04-05T11:44:54.027Z,14.00
2023-04-05T11:46:14.955Z,14.10
2023-04-05T11:47:37.570Z,14.00
2023-04-05T11:48:58.109Z,14.00
2023-04-05T11:50:20.971Z,13.90
2023-04-05T11:51:43.367Z,13.90
2023-04-05T11:53:11.053Z,13.90
2023-04-05T11:54:31.855Z,13.90
2023-04-05T11:55:52.637Z,13.80
2023-04-05T11:57:14.621Z,13.70
2023-04-05T11:58:35.062Z,13.90
2023-04-05T11:59:55.655Z,14.00
2023-04-05T12:01:15.803Z,13.90
2023-04-05T12:02:36.435Z,14.00
2023-04-05T12:03:57.866Z,14.10
2023-04-05T12:05:18.953Z,14.10
2023-04-05T12:06:39.514Z,14.00
2023-04-05T12:08:01.769Z,14.00
2023-04-05T12:09:22.205Z,13.90
2023-04-05T12:10:42.812Z,13.90
2023-04-05T12:12:03.775Z,13.90
2023-04-05T12:13:28.106Z,14.00
2023-04-05T12:14:48.641Z,14.00
2023-04-05T12:16:09.749Z,14.20
2023-04-05T12:17:41.068Z,14.30
2023-04-05T12:19:01.672Z,14.10
2023-04-05T12:20:23.212Z,14.20
2023-04-05T12:21:43.981Z,14.20
2023-04-05T12:23:05.987Z,14.20
2023-04-05T12:24:26.780Z,14.30
2023-04-05T12:25:47.635Z,14.30
2023-04-05T12:27:08.282Z,14.30
2023-04-05T12:28:50.143Z,14.30
2023-04-05T12:30:11.770Z,14.30
2023-04-05T12:31:36.070Z,14.40
2023-04-05T12:32:56.494Z,14.60
2023-04-05T12:34:24.081Z,14.60
2023-04-05T12:35:44.581Z,14.80
2023-04-05T12:37:05.426Z,15.00
2023-04-05T12:38:28.246Z,15.20
2023-04-05T12:39:49.509Z,15.40
2023-04-05T12:41:10.226Z,15.40
2023-04-05T12:42:33.038Z,15.50
2023-04-05T12:43:53.839Z,15.30
2023-04-05T12:45:14.662Z,15.30
2023-04-05T12:46:41.658Z,15.40
2023-04-05T12:48:02.304Z,15.70
2023-04-05T12:49:22.939Z,15.90
2023-04-05T12:50:44.867Z,16.10
2023-04-05T12:52:05.815Z,16.20
2023-04-05T12:53:28.182Z,16.30
2023-04-05T12:54:54.020Z,16.30
2023-04-05T12:56:15.897Z,16.30
2023-04-05T12:57:36.450Z,16.30
2023-04-05T12:58:56.963Z,16.10
2023-04-05T13:00:18.452Z,16.00
2023-04-05T13:01:39.279Z,15.90
2023-04-05T13:03:00.200Z,16.20
2023-04-05T13:04:21.000Z,16.10
2023-04-05T13:05:41.651Z,16.20
2023-04-05T13:07:02.625Z,16.10
2023-04-05T13:08:23.264Z,16.10
2023-04-05T13:09:45.545Z,16.10
2023-04-05T13:11:06.259Z,16.10
2023-04-05T13:12:26.995Z,16.20
2023-04-05T13:13:47.731Z,16.10
2023-04-05T13:15:09.389Z,16.00
2023-04-05T13:16:30.133Z,16.10
2023-04-05T13:17:50.755Z,16.00
2023-04-05T13:19:11.065Z,15.80
2023-04-05T13:20:32.258Z,15.90
2023-04-05T13:21:52.966Z,15.90
2023-04-05T13:23:13.756Z,16.10
2023-04-05T13:24:34.371Z,16.30
2023-04-05T13:25:59.402Z,16.40
2023-04-05T13:27:20.515Z,16.30
2023-04-05T13:28:41.215Z,16.30
2023-04-05T13:30:01.931Z,16.30
2023-04-05T13:31:22.736Z,16.40
2023-04-05T13:32:43.685Z,16.50
2023-04-05T13:34:04.793Z,16.50
2023-04-05T13:35:25.588Z,16.40
2023-04-05T13:36:46.314Z,16.40
2023-04-05T13:38:06.808Z,16.50
2023-04-05T13:39:27.475Z,16.40
2023-04-05T13:40:48.278Z,16.30
2023-04-05T13:42:10.251Z,16.30
2023-04-05T13:43:31.080Z,16.30
2023-04-05T13:44:51.575Z,16.30
2023-04-05T13:46:12.079Z,16.40
2023-04-05T13:47:32.523Z,16.40
2023-04-05T13:48:52.938Z,16.30
2023-04-05T13:50:13.599Z,16.30
2023-04-05T13:51:34.690Z,16.20
2023-04-05T13:52:55.462Z,16.40
2023-04-05T13:54:15.655Z,16.40
2023-04-05T13:55:36.221Z,16.40
2023-04-05T13:56:56.893Z,16.40
2023-04-05T13:58:18.947Z,16.50
2023-04-05T13:59:40.004Z,16.60
2023-04-05T14:01:00.734Z,16.70
2023-04-05T14:02:21.268Z,16.70
2023-04-05T14:03:41.848Z,16.70
2023-04-05T14:05:02.791Z,16.70
2023-04-05T14:06:23.557Z,16.50
2023-04-05T14:07:44.213Z,16.50
2023-04-05T14:09:04.900Z,16.40
2023-04-05T14:10:27.757Z,16.40
2023-04-05T14:11:48.543Z,16.30
2023-04-05T14:13:09.343Z,16.30
2023-04-05T14:14:31.058Z,16.20
2023-04-05T14:15:51.683Z,16.10
2023-04-05T14:17:12.345Z,16.10
2023-04-05T14:18:32.955Z,16.20
2023-04-05T14:19:53.658Z,16.40
2023-04-05T14:21:14.385Z,16.40
2023-04-05T14:22:34.793Z,16.20
2023-04-05T14:23:55.587Z,16.30
2023-04-05T14:25:16.316Z,16.20
2023-04-05T14:26:37.111Z,16.30
2023-04-05T14:27:57.798Z,16.40
2023-04-05T14:29:18.590Z,16.40
2023-04-05T14:30:40.880Z,16.40
2023-04-05T14:32:01.654Z,16.40
2023-04-05T14:33:22.311Z,16.50
2023-04-05T14:34:42.697Z,16.60
2023-04-05T14:36:03.963Z,16.60
2023-04-05T14:37:24.967Z,16.50
2023-04-05T14:38:45.527Z,16.50
2023-04-05T14:40:06.929Z,16.60
2023-04-05T14:41:27.537Z,16.60
2023-04-05T14:42:50.148Z,16.50
2023-04-05T14:44:10.914Z,16.40
2023-04-05T14:45:31.576Z,16.40
2023-04-05T14:46:53.601Z,16.40
2023-04-05T14:48:13.991Z,16.40
2023-04-05T14:49:34.648Z,16.50
2023-04-05T14:50:55.954Z,16.60
2023-04-05T14:52:16.660Z,16.60
2023-04-05T14:53:37.403Z,16.40
2023-04-05T14:54:58.043Z,16.40
2023-04-05T14:56:18.741Z,16.30
2023-04-05T14:57:39.613Z,16.50
2023-04-05T14:59:00.582Z,16.50
2023-04-05T15:00:21.466Z,16.50
2023-04-05T15:01:42.013Z,16.50
2023-04-05T15:03:04.402Z,16.50
2023-04-05T15:04:25.282Z,16.50
2023-04-05T15:05:46.492Z,16.50
2023-04-05T15:07:06.995Z,16.50
2023-04-05T15:08:27.833Z,16.50
2023-04-05T15:09:48.703Z,16.70
2023-04-05T15:11:09.384Z,16.70
2023-04-05T15:12:29.961Z,16.70
2023-04-05T15:13:50.866Z,16.80
2023-04-05T15:15:11.915Z,16.80
2023-04-05T15:16:32.362Z,16.90
2023-04-05T15:17:53.237Z,16.80
2023-04-05T15:19:15.368Z,16.90
2023-04-05T15:20:36.232Z,16.90
2023-04-05T15:21:56.923Z,17.10
2023-04-05T15:23:17.400Z,17.10
2023-04-05T15:24:38.073Z,17.20
2023-04-05T15:25:58.845Z,17.00
2023-04-05T15:27:19.623Z,17.10
2023-04-05T15:28:40.200Z,17.10
2023-04-05T15:30:01.099Z,17.00
2023-04-05T15:31:21.695Z,17.00
2023-04-05T15:32:42.295Z,16.90
2023-04-05T15:34:02.836Z,16.80
2023-04-05T15:35:25.110Z,16.80
2023-04-05T15:36:45.808Z,17.10
2023-04-05T15:38:06.480Z,17.20
2023-04-05T15:39:27.213Z,17.20
2023-04-05T15:40:48.030Z,17.30
2023-04-05T15:42:08.701Z,17.10
2023-04-05T15:43:30.786Z,17.00
2023-04-05T15:44:51.448Z,17.10
2023-04-05T15:46:12.082Z,17.10
2023-04-05T15:47:32.829Z,17.20
2023-04-05T15:48:53.701Z,17.30
2023-04-05T15:50:14.438Z,17.10
2023-04-05T15:51:37.001Z,17.20
2023-04-05T15:52:57.565Z,17.30
2023-04-05T15:54:18.322Z,17.40
2023-04-05T15:55:39.083Z,17.40
2023-04-05T15:56:59.910Z,17.50
2023-04-05T15:58:20.552Z,17.50
2023-04-05T15:59:41.509Z,17.70
2023-04-05T16:01:02.065Z,17.90
2023-04-05T16:02:22.934Z,17.80
2023-04-05T16:03:43.661Z,17.90
2023-04-05T16:05:05.091Z,18.00
2023-04-05T16:06:25.445Z,18.00
2023-04-05T16:07:47.593Z,18.20
2023-04-05T16:09:08.229Z,18.30
2023-04-05T16:10:28.925Z,18.00
2023-04-05T16:11:49.751Z,17.80
2023-04-05T16:13:10.722Z,17.80
2023-04-05T16:14:31.241Z,17.70
2023-04-05T16:15:51.948Z,17.60
2023-04-05T16:17:12.678Z,17.50
2023-04-05T16:18:33.316Z,17.60
2023-04-05T16:19:56.449Z,17.50
2023-04-05T16:21:17.862Z,17.50
2023-04-05T16:22:38.196Z,17.40
2023-04-05T16:24:00.365Z,17.30
2023-04-05T16:25:20.976Z,17.30
2023-04-05T16:26:41.933Z,17.30
2023-04-05T16:28:02.750Z,17.20
2023-04-05T16:29:23.486Z,17.30
2023-04-05T16:30:45.621Z,17.40
2023-04-05T16:32:08.180Z,17.50
2023-04-05T16:33:28.820Z,17.10
2023-04-05T16:34:49.570Z,16.90
2023-04-05T16:36:10.282Z,16.90
2023-04-05T16:37:30.871Z,16.80
2023-04-05T16:38:51.419Z,16.90
2023-04-05T16:40:13.603Z,16.80
2023-04-05T16:41:34.701Z,16.70
2023-04-05T16:42:55.797Z,16.70
2023-04-05T16:44:16.373Z,16.60
2023-04-05T16:45:37.159Z,16.40
2023-04-05T16:46:57.709Z,16.30
2023-04-05T16:48:18.367Z,16.30
2023-04-05T16:49:38.905Z,16.10
2023-04-05T16:50:59.337Z,16.00
2023-04-05T16:52:19.928Z,16.00
2023-04-05T16:53:40.528Z,15.70
2023-04-05T16:55:01.082Z,16.00
2023-04-05T16:56:23.176Z,16.20
2023-04-05T16:57:43.620Z,16.30
2023-04-05T16:59:06.700Z,16.30
2023-04-05T17:00:28.747Z,16.50
2023-04-05T17:01:49.610Z,16.60
2023-04-05T17:03:10.712Z,16.70
2023-04-05T17:04:31.430Z,16.50
2023-04-05T17:05:52.206Z,16.30
2023-04-05T17:07:12.866Z,16.20
2023-04-05T17:08:33.603Z,16.20
2023-04-05T17:09:54.274Z,15.90
2023-04-05T17:11:14.960Z,15.80
2023-04-05T17:12:37.257Z,15.80
2023-04-05T17:13:58.172Z,15.70
2023-04-05T17:15:18.923Z,15.60
2023-04-05T17:16:39.652Z,15.70
2023-04-05T17:18:00.553Z,15.80
2023-04-05T17:19:21.321Z,15.70
2023-04-05T17:20:42.226Z,15.80
2023-04-05T17:22:02.653Z,15.60
2023-04-05T17:23:24.173Z,15.20
2023-04-05T17:24:45.081Z,15.10
2023-04-05T17:26:06.169Z,15.20
2023-04-05T17:27:26.853Z,15.00
2023-04-05T17:28:48.783Z,14.90
2023-04-05T17:30:10.133Z,14.90
2023-04-05T17:31:31.029Z,15.10
2023-04-05T17:32:51.903Z,15.10
2023-04-05T17:34:14.419Z,15.20
2023-04-05T17:35:35.100Z,15.20
2023-04-05T17:36:56.043Z,15.10
2023-04-05T17:38:16.696Z,15.10
2023-04-05T17:39:37.633Z,15.00
2023-04-05T17:40:58.477Z,15.00
2023-04-05T17:42:19.388Z,15.10
2023-04-05T17:43:40.002Z,14.90
2023-04-05T17:45:01.942Z,14.50
2023-04-05T17:46:33.896Z,14.40
2023-04-05T17:48:01.830Z,14.20
2023-04-05T17:49:22.384Z,14.40
2023-04-05T17:50:42.836Z,14.40
2023-04-05T17:52:03.894Z,14.40